Thunder radar more information blitzortung!


Radar de pluja more information rain snow radar


Visita la nostra xarxa de llocs de meteo:

Template documentation
and downloads

And another site



No particular awareness of the weather is required.    There are no Weather-warnings

Pagina Historial Weather Underground text

Diari Resum January 10, 2018 Unitats:  Imperial    Mètric   Tant
« Previous Dia
SegĂźent Dia »
Diari Setmana Mensual Anual Personalitzada
  Maxima: Minima: Media:
Temperatura: TemperatureC °F 6.0 °F 9.3 °F
Punt de rosada: DewpointC °F -2.9 °F 1 °F
Humitat: Humidity % 50 % 55 %
Wind Speed: WindSpeedKMH mph 0.0 mph 6 mph
RĂ fegues de vent: WindSpeedGustKMH mph - -
Vent:- - West
Pression baro: PressurehPa in 1010.7 in -
Precipitacions: 0.0 in    
Historical Graphs
 
 
Dades de taula per January 10, 2018
Temps Temperatura Punt de rosada Pression baro Vent Wind Speed RĂ fegues de vent Humitat Rainfall Rate (Hourly)
TemperatureC °F DewpointC °F PressurehPa in Calm     Humidity % HourlyPrecipMM in
00:01 6.0 °F -2.9 °F 1015.8 in Calm     53 % 0.0 in
14:09 11.9 °F 2.6 °F 1013.8 in SW 9.3 mph 9.3 mph 53 % 0.0 in
14:15 11.9 °F 2.3 °F 1013.8 in WSW 10.3 mph 10.3 mph 52 % 0.0 in
14:37 12.0 °F 2.4 °F 1012.8 in WNW 9.3 mph 9.3 mph 52 % 0.0 in
14:47 12.1 °F 2.6 °F 1012.8 in WNW 5.8 mph 5.8 mph 52 % 0.0 in
15:00 12.1 °F 2.3 °F 1012.8 in WSW 9.7 mph 9.7 mph 51 % 0.0 in
15:06 12.3 °F 2.4 °F 1011.7 in SW 5.6 mph 5.6 mph 51 % 0.0 in
15:14 12.5 °F 2.9 °F 1011.7 in West 7.4 mph 7.4 mph 52 % 0.0 in
15:21 12.7 °F 3.1 °F 1012.8 in WSW 7.4 mph 7.4 mph 52 % 0.0 in
15:27 12.7 °F 2.8 °F 1012.8 in SW 5.8 mph 6.9 mph 51 % 0.0 in
15:33 12.7 °F 2.8 °F 1012.8 in West 9.3 mph 9.3 mph 51 % 0.0 in
15:39 12.6 °F 2.7 °F 1012.8 in WNW 13.0 mph 13.0 mph 51 % 0.0 in
15:51 12.4 °F 2.6 °F 1012.8 in NW 10.0 mph 10.0 mph 51 % 0.0 in
16:02 12.4 °F 2.6 °F 1012.8 in WSW 4.7 mph 4.7 mph 51 % 0.0 in
16:11 12.4 °F 2.6 °F 1012.8 in NW 9.5 mph 9.7 mph 51 % 0.0 in
16:16 12.4 °F 2.6 °F 1012.8 in SW 9.3 mph 9.3 mph 51 % 0.0 in
16:25 12.1 °F 2.3 °F 1013.8 in WSW 9.3 mph 9.3 mph 51 % 0.0 in
16:40 11.6 °F 1.5 °F 1012.8 in WSW 18.5 mph 18.5 mph 50 % 0.0 in
16:47 11.5 °F 1.4 °F 1012.8 in WSW 13.0 mph 13.0 mph 50 % 0.0 in
16:59 11.2 °F 1.2 °F 1013.8 in WSW 16.7 mph 16.7 mph 50 % 0.0 in
17:07 10.8 °F 1.1 °F 1013.8 in WNW 13.0 mph 13.0 mph 51 % 0.0 in
17:18 10.4 °F 0.7 °F 1013.8 in NNW 16.7 mph 16.7 mph 51 % 0.0 in
17:24 10.2 °F 0.5 °F 1012.8 in WSW 13.0 mph 13.0 mph 51 % 0.0 in
17:30 10.0 °F 0.3 °F 1012.8 in SW 13.0 mph 13.0 mph 51 % 0.0 in
17:41 9.7 °F 0.3 °F 1012.8 in WSW 7.4 mph 7.4 mph 52 % 0.0 in
17:52 9.5 °F 0.1 °F 1012.8 in WSW 9.3 mph 9.3 mph 52 % 0.0 in
17:58 9.3 °F -0.1 °F 1012.8 in WSW 5.6 mph 5.6 mph 52 % 0.0 in
18:04 9.2 °F -0.2 °F 1012.8 in SW 6.9 mph   52 % 0.0 in
18:10 9.1 °F 0.0 °F 1012.8 in Calm     53 % 0.0 in
18:15 9.0 °F -0.1 °F 1012.8 in WSW 5.6 mph 5.6 mph 53 % 0.0 in
18:21 8.9 °F -0.2 °F 1012.8 in SSW 5.3 mph 5.3 mph 53 % 0.0 in
18:25 8.9 °F 1.8 °F 1010.7 in WSW 3.2 mph 4.8 mph 61 % 0.0 in
18:29 8.8 °F -0.3 °F 1012.8 in SSE 3.7 mph 3.7 mph 53 % 0.0 in
18:35 8.7 °F 1.6 °F 1010.7 in Calm   3.2 mph 61 % 0.0 in
18:37 8.8 °F -0.3 °F 1012.8 in West 3.7 mph 3.7 mph 53 % 0.0 in
18:43 8.7 °F -0.1 °F 1012.8 in WSW 5.6 mph 5.6 mph 54 % 0.0 in
18:45 8.7 °F 1.6 °F 1010.7 in Calm   1.6 mph 61 % 0.0 in
18:55 8.5 °F 1.4 °F 1011.7 in West 1.6 mph   61 % 0.0 in
18:57 8.8 °F 0.0 °F 1011.7 in SW 5.6 mph 5.6 mph 54 % 0.0 in
19:05 8.6 °F -0.2 °F 1012.8 in WSW 3.7 mph 3.7 mph 54 % 0.0 in
19:15 8.5 °F 1.4 °F 1011.7 in WSW 3.2 mph 4.8 mph 61 % 0.0 in
19:25 8.3 °F 1.2 °F 1011.7 in WSW 3.2 mph 6.4 mph 61 % 0.0 in
19:35 8.3 °F 1.4 °F 1011.7 in WSW 3.2 mph 4.8 mph 62 % 0.0 in
19:55 8.1 °F 1.2 °F 1011.7 in WSW 3.2 mph 4.8 mph 62 % 0.0 in
20:15 8.1 °F 1.2 °F 1011.7 in West 3.2 mph 8.0 mph 62 % 0.0 in
20:35 7.9 °F 1.1 °F 1011.7 in West 4.8 mph 6.4 mph 62 % 0.0 in
20:45 7.8 °F 1.2 °F 1011.7 in West 1.6 mph 3.2 mph 63 % 0.0 in
20:55 7.7 °F 1.1 °F 1011.7 in West 3.2 mph 4.8 mph 63 % 0.0 in
21:05 7.5 °F 0.9 °F 1010.7 in West 1.6 mph 3.2 mph 63 % 0.0 in
21:15 7.5 °F 0.9 °F 1010.7 in NW 3.2 mph 3.2 mph 63 % 0.0 in
21:25 7.6 °F 1.0 °F 1011.7 in NNW 1.6 mph 4.8 mph 63 % 0.0 in
21:35 7.8 °F 1.2 °F 1011.7 in NW 1.6 mph 4.8 mph 63 % 0.0 in
21:45 7.7 °F 1.1 °F 1011.7 in NNW 1.6 mph 3.2 mph 63 % 0.0 in
21:55 7.7 °F 1.3 °F 1011.7 in North 1.6 mph 4.8 mph 64 % 0.0 in
22:15 7.6 °F 1.2 °F 1011.7 in Calm   1.6 mph 64 % 0.0 in
22:25 7.6 °F 1.2 °F 1011.7 in WNW 4.8 mph 16.1 mph 64 % 0.0 in
22:35 7.6 °F 0.8 °F 1011.7 in West 3.2 mph 8.0 mph 62 % 0.0 in
22:45 7.5 °F 0.4 °F 1011.7 in West 3.2 mph 4.8 mph 61 % 0.0 in
22:55 7.4 °F 0.4 °F 1011.7 in West 3.2 mph 6.4 mph 61 % 0.0 in
23:05 7.3 °F 0.1 °F 1011.7 in West 4.8 mph 9.7 mph 60 % 0.0 in
23:15 7.1 °F -0.2 °F 1011.7 in WSW 8.0 mph 11.3 mph 60 % 0.0 in
23:25 7.0 °F -0.5 °F 1010.7 in West 4.8 mph 6.4 mph 59 % 0.0 in
23:35 6.8 °F -0.7 °F 1011.7 in West 9.7 mph 12.9 mph 59 % 0.0 in
23:45 6.7 °F -0.8 °F 1011.7 in West 4.8 mph 8.0 mph 59 % 0.0 in
23:55 6.6 °F -0.8 °F 1011.7 in West 3.2 mph 6.4 mph 59 % 0.0 in
Meteo Sesrovires
Elogis d' Weather Underground - 2.75 mb

Guio original per  Jim McMurry - jmcmurry@mwt.net Adaptat per a la plantilla per  Wim van der Kuil - Leuven-Template.eu

Trobareu la nostra informacio del temps tambe a:

Weather Underground

AWEKAS